sensor_id;sensor_type;location;lat;lon;timestamp;temperature;humidity
75357;HTU21D;63946;51.986;5.930;2024-01-06T07:29:55;4.95;76.79
75357;HTU21D;63946;51.986;5.930;2024-01-06T07:32:24;4.96;76.78
75357;HTU21D;63946;51.986;5.930;2024-01-06T07:34:53;4.95;76.70
75357;HTU21D;63946;51.986;5.930;2024-01-06T07:37:21;4.96;76.77
75357;HTU21D;63946;51.986;5.930;2024-01-06T07:39:51;5.00;76.68
75357;HTU21D;63946;51.986;5.930;2024-01-06T07:42:22;5.01;76.60
75357;HTU21D;63946;51.986;5.930;2024-01-06T07:44:51;4.95;76.61
75357;HTU21D;63946;51.986;5.930;2024-01-06T07:47:20;4.98;76.64
75357;HTU21D;63946;51.986;5.930;2024-01-06T07:49:48;4.96;76.56
75357;HTU21D;63946;51.986;5.930;2024-01-06T07:52:18;4.92;76.58
75357;HTU21D;63946;51.986;5.930;2024-01-06T07:54:47;4.94;76.57
75357;HTU21D;63946;51.986;5.930;2024-01-06T07:57:16;4.96;76.36
75357;HTU21D;63946;51.986;5.930;2024-01-06T07:59:45;4.93;76.29
75357;HTU21D;63946;51.986;5.930;2024-01-06T08:02:14;4.88;76.34
75357;HTU21D;63946;51.986;5.930;2024-01-06T08:04:42;4.86;76.32
75357;HTU21D;63946;51.986;5.930;2024-01-06T08:07:11;4.83;76.24
75357;HTU21D;63946;51.986;5.930;2024-01-06T08:09:40;4.77;76.17
75357;HTU21D;63946;51.986;5.930;2024-01-06T08:12:09;4.73;76.27
75357;HTU21D;63946;51.986;5.930;2024-01-06T08:14:39;4.74;76.27
75357;HTU21D;63946;51.986;5.930;2024-01-06T08:17:08;4.81;76.32
75357;HTU21D;63946;51.986;5.930;2024-01-06T08:19:37;4.80;76.22
75357;HTU21D;63946;51.986;5.930;2024-01-06T08:22:07;4.74;76.18
75357;HTU21D;63946;51.986;5.930;2024-01-06T08:24:36;4.75;76.23
75357;HTU21D;63946;51.986;5.930;2024-01-06T08:27:07;4.75;76.15
75357;HTU21D;63946;51.986;5.930;2024-01-06T08:29:36;4.78;76.14
75357;HTU21D;63946;51.986;5.930;2024-01-06T08:32:05;4.77;75.99
75357;HTU21D;63946;51.986;5.930;2024-01-06T08:34:34;4.74;76.18
75357;HTU21D;63946;51.986;5.930;2024-01-06T08:37:02;4.72;76.23
75357;HTU21D;63946;51.986;5.930;2024-01-06T08:39:31;4.73;76.24
75357;HTU21D;63946;51.986;5.930;2024-01-06T08:42:00;4.74;76.26
75357;HTU21D;63946;51.986;5.930;2024-01-06T08:44:29;4.74;76.28
75357;HTU21D;63946;51.986;5.930;2024-01-06T08:46:57;4.75;76.21
75357;HTU21D;63946;51.986;5.930;2024-01-06T08:49:26;4.71;76.09
75357;HTU21D;63946;51.986;5.930;2024-01-06T08:51:55;4.72;76.27
75357;HTU21D;63946;51.986;5.930;2024-01-06T08:54:23;4.73;76.23
75357;HTU21D;63946;51.986;5.930;2024-01-06T08:56:52;4.73;76.28
75357;HTU21D;63946;51.986;5.930;2024-01-06T08:59:22;4.75;76.21
75357;HTU21D;63946;51.986;5.930;2024-01-06T09:01:51;4.77;76.28
75357;HTU21D;63946;51.986;5.930;2024-01-06T09:04:20;4.79;76.29
75357;HTU21D;63946;51.986;5.930;2024-01-06T09:06:49;4.78;76.28
75357;HTU21D;63946;51.986;5.930;2024-01-06T09:09:17;4.81;76.31
75357;HTU21D;63946;51.986;5.930;2024-01-06T09:11:46;4.83;76.09
75357;HTU21D;63946;51.986;5.930;2024-01-06T09:14:17;4.78;76.27
75357;HTU21D;63946;51.986;5.930;2024-01-06T09:16:45;4.78;76.21
75357;HTU21D;63946;51.986;5.930;2024-01-06T09:19:14;4.80;76.31
75357;HTU21D;63946;51.986;5.930;2024-01-06T09:21:43;4.80;76.13
75357;HTU21D;63946;51.986;5.930;2024-01-06T09:24:12;4.79;76.38
75357;HTU21D;63946;51.986;5.930;2024-01-06T09:26:40;4.81;76.50
75357;HTU21D;63946;51.986;5.930;2024-01-06T09:29:10;4.88;76.47
75357;HTU21D;63946;51.986;5.930;2024-01-06T09:31:38;4.90;76.37
75357;HTU21D;63946;51.986;5.930;2024-01-06T09:34:09;4.86;76.12
75357;HTU21D;63946;51.986;5.930;2024-01-06T09:36:45;4.81;76.30
75357;HTU21D;63946;51.986;5.930;2024-01-06T09:39:14;4.79;76.39
75357;HTU21D;63946;51.986;5.930;2024-01-06T09:41:43;4.79;76.40
75357;HTU21D;63946;51.986;5.930;2024-01-06T09:44:12;4.77;76.32
75357;HTU21D;63946;51.986;5.930;2024-01-06T09:46:42;4.73;76.29
75357;HTU21D;63946;51.986;5.930;2024-01-06T09:49:10;4.67;76.41
75357;HTU21D;63946;51.986;5.930;2024-01-06T09:51:40;4.63;76.44
75357;HTU21D;63946;51.986;5.930;2024-01-06T09:54:12;4.66;76.37
75357;HTU21D;63946;51.986;5.930;2024-01-06T09:56:41;4.65;76.20
75357;HTU21D;63946;51.986;5.930;2024-01-06T09:59:14;4.63;76.06
75357;HTU21D;63946;51.986;5.930;2024-01-06T10:01:42;4.62;76.29
75357;HTU21D;63946;51.986;5.930;2024-01-06T10:04:11;4.54;75.98
75357;HTU21D;63946;51.986;5.930;2024-01-06T10:06:41;4.53;76.24
75357;HTU21D;63946;51.986;5.930;2024-01-06T10:09:10;4.53;76.27
75357;HTU21D;63946;51.986;5.930;2024-01-06T10:11:42;4.54;76.28
75357;HTU21D;63946;51.986;5.930;2024-01-06T10:14:11;4.57;76.18
75357;HTU21D;63946;51.986;5.930;2024-01-06T10:16:40;4.54;76.28
75357;HTU21D;63946;51.986;5.930;2024-01-06T10:19:10;4.59;76.31
75357;HTU21D;63946;51.986;5.930;2024-01-06T10:21:39;4.62;76.03
75357;HTU21D;63946;51.986;5.930;2024-01-06T10:24:08;4.56;76.19
75357;HTU21D;63946;51.986;5.930;2024-01-06T10:26:37;4.49;76.17
75357;HTU21D;63946;51.986;5.930;2024-01-06T10:29:06;4.49;76.37
75357;HTU21D;63946;51.986;5.930;2024-01-06T10:31:34;4.52;76.15
75357;HTU21D;63946;51.986;5.930;2024-01-06T10:34:04;4.45;76.07
75357;HTU21D;63946;51.986;5.930;2024-01-06T10:36:33;4.35;76.31
75357;HTU21D;63946;51.986;5.930;2024-01-06T10:39:04;4.36;76.36
75357;HTU21D;63946;51.986;5.930;2024-01-06T10:41:35;4.41;76.25
75357;HTU21D;63946;51.986;5.930;2024-01-06T10:44:05;4.46;76.18
75357;HTU21D;63946;51.986;5.930;2024-01-06T10:46:36;4.44;76.18
75357;HTU21D;63946;51.986;5.930;2024-01-06T10:49:05;4.47;76.21
75357;HTU21D;63946;51.986;5.930;2024-01-06T10:51:37;4.49;75.88
75357;HTU21D;63946;51.986;5.930;2024-01-06T10:54:06;4.48;75.90
75357;HTU21D;63946;51.986;5.930;2024-01-06T10:56:38;4.45;75.84
75357;HTU21D;63946;51.986;5.930;2024-01-06T10:59:08;4.47;75.96
75357;HTU21D;63946;51.986;5.930;2024-01-06T11:01:38;4.56;75.91
75357;HTU21D;63946;51.986;5.930;2024-01-06T11:04:10;4.57;75.71
75357;HTU21D;63946;51.986;5.930;2024-01-06T11:06:39;4.57;75.83
75357;HTU21D;63946;51.986;5.930;2024-01-06T11:09:13;4.54;75.63
75357;HTU21D;63946;51.986;5.930;2024-01-06T11:11:43;4.51;75.74
75357;HTU21D;63946;51.986;5.930;2024-01-06T11:14:26;4.51;75.83
75357;HTU21D;63946;51.986;5.930;2024-01-06T11:16:55;4.51;75.76
75357;HTU21D;63946;51.986;5.930;2024-01-06T11:22:23;4.47;75.71
75357;HTU21D;63946;51.986;5.930;2024-01-06T11:24:54;4.47;75.91
75357;HTU21D;63946;51.986;5.930;2024-01-06T11:27:25;4.47;75.99
75357;HTU21D;63946;51.986;5.930;2024-01-06T11:29:59;4.47;75.87
75357;HTU21D;63946;51.986;5.930;2024-01-06T11:32:33;4.48;75.92
75357;HTU21D;63946;51.986;5.930;2024-01-06T11:35:10;4.53;75.90
75357;HTU21D;63946;51.986;5.930;2024-01-06T11:40:15;4.45;75.98
75357;HTU21D;63946;51.986;5.930;2024-01-06T11:42:46;4.50;75.97
75357;HTU21D;63946;51.986;5.930;2024-01-06T11:45:15;4.56;75.94
75357;HTU21D;63946;51.986;5.930;2024-01-06T11:47:47;4.59;75.95
75357;HTU21D;63946;51.986;5.930;2024-01-06T11:50:17;4.57;75.86
75357;HTU21D;63946;51.986;5.930;2024-01-06T11:52:46;4.59;75.75
75357;HTU21D;63946;51.986;5.930;2024-01-06T11:55:17;4.56;75.74
75357;HTU21D;63946;51.986;5.930;2024-01-06T11:57:46;4.54;75.78
75357;HTU21D;63946;51.986;5.930;2024-01-06T12:00:18;4.54;75.70
75357;HTU21D;63946;51.986;5.930;2024-01-06T12:02:47;4.51;75.70
75357;HTU21D;63946;51.986;5.930;2024-01-06T12:05:18;4.49;75.63
75357;HTU21D;63946;51.986;5.930;2024-01-06T12:08:13;4.47;75.40
75357;HTU21D;63946;51.986;5.930;2024-01-06T12:10:42;4.39;75.38
75357;HTU21D;63946;51.986;5.930;2024-01-06T12:13:11;4.35;75.41
75357;HTU21D;63946;51.986;5.930;2024-01-06T12:15:40;4.27;75.44
75357;HTU21D;63946;51.986;5.930;2024-01-06T12:18:09;4.28;75.57
75357;HTU21D;63946;51.986;5.930;2024-01-06T12:20:37;4.28;75.42
75357;HTU21D;63946;51.986;5.930;2024-01-06T12:23:07;4.29;75.41
75357;HTU21D;63946;51.986;5.930;2024-01-06T12:25:36;4.34;75.58
75357;HTU21D;63946;51.986;5.930;2024-01-06T12:28:05;4.35;75.44
75357;HTU21D;63946;51.986;5.930;2024-01-06T12:30:37;4.43;75.54
75357;HTU21D;63946;51.986;5.930;2024-01-06T12:33:06;4.44;75.42
75357;HTU21D;63946;51.986;5.930;2024-01-06T12:35:35;4.46;75.32
75357;HTU21D;63946;51.986;5.930;2024-01-06T12:38:10;4.48;75.40
75357;HTU21D;63946;51.986;5.930;2024-01-06T12:40:39;4.47;75.21
75357;HTU21D;63946;51.986;5.930;2024-01-06T12:43:08;4.47;75.00
75357;HTU21D;63946;51.986;5.930;2024-01-06T12:45:36;4.45;74.92
75357;HTU21D;63946;51.986;5.930;2024-01-06T12:48:05;4.44;74.95
75357;HTU21D;63946;51.986;5.930;2024-01-06T12:50:34;4.43;74.93
75357;HTU21D;63946;51.986;5.930;2024-01-06T12:53:03;4.46;75.05
75357;HTU21D;63946;51.986;5.930;2024-01-06T12:55:32;4.47;74.87
75357;HTU21D;63946;51.986;5.930;2024-01-06T12:58:01;4.47;74.99
75357;HTU21D;63946;51.986;5.930;2024-01-06T13:00:30;4.49;74.94
75357;HTU21D;63946;51.986;5.930;2024-01-06T13:02:58;4.48;74.92
75357;HTU21D;63946;51.986;5.930;2024-01-06T13:05:27;4.48;74.74
75357;HTU21D;63946;51.986;5.930;2024-01-06T13:07:56;4.46;74.88
75357;HTU21D;63946;51.986;5.930;2024-01-06T13:10:25;4.32;74.91
75357;HTU21D;63946;51.986;5.930;2024-01-06T13:12:54;4.23;75.18
75357;HTU21D;63946;51.986;5.930;2024-01-06T13:15:26;4.22;75.39
75357;HTU21D;63946;51.986;5.930;2024-01-06T13:17:56;4.23;75.38
75357;HTU21D;63946;51.986;5.930;2024-01-06T13:20:25;4.28;75.49
75357;HTU21D;63946;51.986;5.930;2024-01-06T13:22:53;4.32;75.35
75357;HTU21D;63946;51.986;5.930;2024-01-06T13:25:22;4.30;75.52
75357;HTU21D;63946;51.986;5.930;2024-01-06T13:27:51;4.33;75.57
75357;HTU21D;63946;51.986;5.930;2024-01-06T13:30:26;4.33;75.58
75357;HTU21D;63946;51.986;5.930;2024-01-06T13:32:54;4.34;75.72
75357;HTU21D;63946;51.986;5.930;2024-01-06T13:35:27;4.26;75.62
75357;HTU21D;63946;51.986;5.930;2024-01-06T13:37:57;4.19;75.85
75357;HTU21D;63946;51.986;5.930;2024-01-06T13:40:26;4.22;75.89
75357;HTU21D;63946;51.986;5.930;2024-01-06T13:42:54;4.28;75.80
75357;HTU21D;63946;51.986;5.930;2024-01-06T13:45:23;4.27;75.73
75357;HTU21D;63946;51.986;5.930;2024-01-06T13:47:52;4.32;76.00
75357;HTU21D;63946;51.986;5.930;2024-01-06T13:50:23;4.36;75.70
75357;HTU21D;63946;51.986;5.930;2024-01-06T13:52:52;4.31;75.83
75357;HTU21D;63946;51.986;5.930;2024-01-06T13:55:21;4.30;75.90
75357;HTU21D;63946;51.986;5.930;2024-01-06T13:57:51;4.32;75.76
75357;HTU21D;63946;51.986;5.930;2024-01-06T14:00:20;4.29;75.83
75357;HTU21D;63946;51.986;5.930;2024-01-06T14:02:50;4.31;75.87
75357;HTU21D;63946;51.986;5.930;2024-01-06T14:05:22;4.33;75.93
75357;HTU21D;63946;51.986;5.930;2024-01-06T14:07:51;4.37;75.79
75357;HTU21D;63946;51.986;5.930;2024-01-06T14:10:27;4.34;75.79
75357;HTU21D;63946;51.986;5.930;2024-01-06T14:12:57;4.32;75.89
75357;HTU21D;63946;51.986;5.930;2024-01-06T14:15:26;4.34;75.91
75357;HTU21D;63946;51.986;5.930;2024-01-06T14:17:57;4.38;75.79
75357;HTU21D;63946;51.986;5.930;2024-01-06T14:20:25;4.34;75.66
75357;HTU21D;63946;51.986;5.930;2024-01-06T14:22:54;4.38;75.83
75357;HTU21D;63946;51.986;5.930;2024-01-06T14:25:24;4.38;75.69
75357;HTU21D;63946;51.986;5.930;2024-01-06T14:27:53;4.32;75.57
75357;HTU21D;63946;51.986;5.930;2024-01-06T14:30:22;4.30;75.86
75357;HTU21D;63946;51.986;5.930;2024-01-06T14:32:51;4.30;75.66
75357;HTU21D;63946;51.986;5.930;2024-01-06T14:35:19;4.27;75.72
75357;HTU21D;63946;51.986;5.930;2024-01-06T14:37:51;4.26;75.72
75357;HTU21D;63946;51.986;5.930;2024-01-06T14:40:22;4.21;75.53
75357;HTU21D;63946;51.986;5.930;2024-01-06T14:42:51;4.18;75.50
75357;HTU21D;63946;51.986;5.930;2024-01-06T14:45:20;4.16;75.40
75357;HTU21D;63946;51.986;5.930;2024-01-06T14:47:51;4.17;75.54
75357;HTU21D;63946;51.986;5.930;2024-01-06T14:50:19;4.19;75.59
75357;HTU21D;63946;51.986;5.930;2024-01-06T14:52:48;4.17;75.37
75357;HTU21D;63946;51.986;5.930;2024-01-06T14:55:18;4.18;75.49
75357;HTU21D;63946;51.986;5.930;2024-01-06T14:57:53;4.18;75.44
75357;HTU21D;63946;51.986;5.930;2024-01-06T15:00:21;4.18;75.38
75357;HTU21D;63946;51.986;5.930;2024-01-06T15:02:52;4.18;75.27
75357;HTU21D;63946;51.986;5.930;2024-01-06T15:05:21;4.19;75.24
75357;HTU21D;63946;51.986;5.930;2024-01-06T15:07:59;4.19;75.25
75357;HTU21D;63946;51.986;5.930;2024-01-06T15:10:27;4.10;75.28
75357;HTU21D;63946;51.986;5.930;2024-01-06T15:12:56;4.09;75.49
75357;HTU21D;63946;51.986;5.930;2024-01-06T15:15:25;4.09;75.34
75357;HTU21D;63946;51.986;5.930;2024-01-06T15:17:54;4.10;75.49
75357;HTU21D;63946;51.986;5.930;2024-01-06T15:20:22;4.14;75.34
75357;HTU21D;63946;51.986;5.930;2024-01-06T15:22:51;4.15;75.31
75357;HTU21D;63946;51.986;5.930;2024-01-06T15:25:22;4.16;75.29
75357;HTU21D;63946;51.986;5.930;2024-01-06T15:27:51;4.18;75.47
75357;HTU21D;63946;51.986;5.930;2024-01-06T15:30:20;4.21;75.41
75357;HTU21D;63946;51.986;5.930;2024-01-06T15:32:51;4.17;75.19
75357;HTU21D;63946;51.986;5.930;2024-01-06T15:35:21;4.14;75.38
75357;HTU21D;63946;51.986;5.930;2024-01-06T15:37:50;4.17;75.28
75357;HTU21D;63946;51.986;5.930;2024-01-06T15:40:19;4.16;75.16
75357;HTU21D;63946;51.986;5.930;2024-01-06T15:42:52;4.17;75.20
75357;HTU21D;63946;51.986;5.930;2024-01-06T15:45:21;4.16;75.09
75357;HTU21D;63946;51.986;5.930;2024-01-06T15:47:53;4.18;75.00
75357;HTU21D;63946;51.986;5.930;2024-01-06T15:50:22;4.20;75.12
75357;HTU21D;63946;51.986;5.930;2024-01-06T15:52:51;4.23;74.85
75357;HTU21D;63946;51.986;5.930;2024-01-06T15:55:20;4.21;74.99
75357;HTU21D;63946;51.986;5.930;2024-01-06T15:57:51;4.17;74.98
75357;HTU21D;63946;51.986;5.930;2024-01-06T16:00:20;4.16;74.81
75357;HTU21D;63946;51.986;5.930;2024-01-06T16:02:49;4.17;74.74
75357;HTU21D;63946;51.986;5.930;2024-01-06T16:05:18;4.21;74.94
75357;HTU21D;63946;51.986;5.930;2024-01-06T16:07:47;4.23;74.73
75357;HTU21D;63946;51.986;5.930;2024-01-06T16:10:16;4.17;74.87
75357;HTU21D;63946;51.986;5.930;2024-01-06T16:12:45;4.18;74.93
75357;HTU21D;63946;51.986;5.930;2024-01-06T16:15:13;4.27;74.93
75357;HTU21D;63946;51.986;5.930;2024-01-06T16:17:42;4.29;74.75
75357;HTU21D;63946;51.986;5.930;2024-01-06T16:20:11;4.28;74.72
75357;HTU21D;63946;51.986;5.930;2024-01-06T16:22:40;4.28;74.84
75357;HTU21D;63946;51.986;5.930;2024-01-06T16:25:12;4.22;74.47
75357;HTU21D;63946;51.986;5.930;2024-01-06T16:27:42;4.10;74.86
75357;HTU21D;63946;51.986;5.930;2024-01-06T16:30:11;4.13;74.97
75357;HTU21D;63946;51.986;5.930;2024-01-06T16:32:40;4.07;74.86
75357;HTU21D;63946;51.986;5.930;2024-01-06T16:35:09;4.04;74.96
75357;HTU21D;63946;51.986;5.930;2024-01-06T16:37:40;4.06;74.92
75357;HTU21D;63946;51.986;5.930;2024-01-06T16:40:12;4.02;74.70
75357;HTU21D;63946;51.986;5.930;2024-01-06T16:42:41;4.00;74.93
75357;HTU21D;63946;51.986;5.930;2024-01-06T16:45:09;4.01;74.81
75357;HTU21D;63946;51.986;5.930;2024-01-06T16:47:39;4.01;74.79
75357;HTU21D;63946;51.986;5.930;2024-01-06T16:50:08;4.01;74.82
75357;HTU21D;63946;51.986;5.930;2024-01-06T16:52:37;4.00;74.70
75357;HTU21D;63946;51.986;5.930;2024-01-06T16:55:06;3.95;74.89
75357;HTU21D;63946;51.986;5.930;2024-01-06T16:57:35;3.94;74.83
75357;HTU21D;63946;51.986;5.930;2024-01-06T17:00:10;3.93;74.97
75357;HTU21D;63946;51.986;5.930;2024-01-06T17:02:41;3.98;75.01
75357;HTU21D;63946;51.986;5.930;2024-01-06T17:05:10;3.97;74.73
75357;HTU21D;63946;51.986;5.930;2024-01-06T17:07:39;3.91;75.02
75357;HTU21D;63946;51.986;5.930;2024-01-06T17:10:13;3.89;74.81
75357;HTU21D;63946;51.986;5.930;2024-01-06T17:12:42;3.83;75.05
75357;HTU21D;63946;51.986;5.930;2024-01-06T17:15:11;3.85;74.77
75357;HTU21D;63946;51.986;5.930;2024-01-06T17:17:41;3.75;74.92
75357;HTU21D;63946;51.986;5.930;2024-01-06T17:20:10;3.71;74.90
75357;HTU21D;63946;51.986;5.930;2024-01-06T17:22:39;3.68;75.05
75357;HTU21D;63946;51.986;5.930;2024-01-06T17:25:09;3.71;75.12
75357;HTU21D;63946;51.986;5.930;2024-01-06T17:27:37;3.76;75.07
75357;HTU21D;63946;51.986;5.930;2024-01-06T17:30:06;3.77;74.99
75357;HTU21D;63946;51.986;5.930;2024-01-06T17:32:36;3.77;74.96
75357;HTU21D;63946;51.986;5.930;2024-01-06T17:35:05;3.75;74.92
75357;HTU21D;63946;51.986;5.930;2024-01-06T17:37:34;3.79;75.01
75357;HTU21D;63946;51.986;5.930;2024-01-06T17:40:02;3.84;74.82
75357;HTU21D;63946;51.986;5.930;2024-01-06T17:42:32;3.79;74.83
75357;HTU21D;63946;51.986;5.930;2024-01-06T17:45:01;3.84;74.85
75357;HTU21D;63946;51.986;5.930;2024-01-06T17:47:30;3.79;74.80
75357;HTU21D;63946;51.986;5.930;2024-01-06T17:50:01;3.78;74.83
75357;HTU21D;63946;51.986;5.930;2024-01-06T17:52:31;3.82;74.99
75357;HTU21D;63946;51.986;5.930;2024-01-06T17:54:57;3.85;74.71
75357;HTU21D;63946;51.986;5.930;2024-01-06T17:57:26;3.85;74.91
75357;HTU21D;63946;51.986;5.930;2024-01-06T18:00:03;3.88;74.88
75357;HTU21D;63946;51.986;5.930;2024-01-06T18:02:33;3.86;74.46
75357;HTU21D;63946;51.986;5.930;2024-01-06T18:05:02;3.73;74.68
75357;HTU21D;63946;51.986;5.930;2024-01-06T18:07:39;3.69;74.77
75357;HTU21D;63946;51.986;5.930;2024-01-06T18:10:08;3.67;74.87
75357;HTU21D;63946;51.986;5.930;2024-01-06T18:12:37;3.67;74.98
75357;HTU21D;63946;51.986;5.930;2024-01-06T18:15:07;3.72;74.86
75357;HTU21D;63946;51.986;5.930;2024-01-06T18:17:36;3.76;74.60
75357;HTU21D;63946;51.986;5.930;2024-01-06T18:20:06;3.70;74.78
75357;HTU21D;63946;51.986;5.930;2024-01-06T18:22:35;3.79;74.58
75357;HTU21D;63946;51.986;5.930;2024-01-06T18:25:06;3.74;74.54
75357;HTU21D;63946;51.986;5.930;2024-01-06T18:27:36;3.70;74.41
75357;HTU21D;63946;51.986;5.930;2024-01-06T18:30:05;3.65;74.35
75357;HTU21D;63946;51.986;5.930;2024-01-06T18:32:34;3.64;74.39
75357;HTU21D;63946;51.986;5.930;2024-01-06T18:35:03;3.59;74.31
75357;HTU21D;63946;51.986;5.930;2024-01-06T18:37:32;3.52;74.28
75357;HTU21D;63946;51.986;5.930;2024-01-06T18:40:00;3.52;74.41
75357;HTU21D;63946;51.986;5.930;2024-01-06T18:42:30;3.59;74.47
75357;HTU21D;63946;51.986;5.930;2024-01-06T18:44:59;3.61;74.18
75357;HTU21D;63946;51.986;5.930;2024-01-06T18:47:28;3.56;74.26
75357;HTU21D;63946;51.986;5.930;2024-01-06T18:49:57;3.56;74.20
75357;HTU21D;63946;51.986;5.930;2024-01-06T18:52:25;3.55;74.29
75357;HTU21D;63946;51.986;5.930;2024-01-06T18:54:55;3.56;74.31
75357;HTU21D;63946;51.986;5.930;2024-01-06T18:57:24;3.57;74.28
75357;HTU21D;63946;51.986;5.930;2024-01-06T18:59:53;3.61;74.29
75357;HTU21D;63946;51.986;5.930;2024-01-06T19:02:21;3.65;74.20
75357;HTU21D;63946;51.986;5.930;2024-01-06T19:04:50;3.57;73.74
75357;HTU21D;63946;51.986;5.930;2024-01-06T19:07:20;3.48;73.81
75357;HTU21D;63946;51.986;5.930;2024-01-06T19:09:52;3.45;73.62
75357;HTU21D;63946;51.986;5.930;2024-01-06T19:12:21;3.35;73.47
75357;HTU21D;63946;51.986;5.930;2024-01-06T19:14:52;3.32;73.32
75357;HTU21D;63946;51.986;5.930;2024-01-06T19:17:21;3.33;73.48
75357;HTU21D;63946;51.986;5.930;2024-01-06T19:19:50;3.39;73.37
75357;HTU21D;63946;51.986;5.930;2024-01-06T19:22:27;3.41;73.16
75357;HTU21D;63946;51.986;5.930;2024-01-06T19:24:56;3.43;73.19
75357;HTU21D;63946;51.986;5.930;2024-01-06T19:27:24;3.47;73.01
75357;HTU21D;63946;51.986;5.930;2024-01-06T19:29:53;3.38;72.71
75357;HTU21D;63946;51.986;5.930;2024-01-06T19:32:22;3.30;72.93
75357;HTU21D;63946;51.986;5.930;2024-01-06T19:34:52;3.33;73.08
75357;HTU21D;63946;51.986;5.930;2024-01-06T19:37:23;3.36;73.03
75357;HTU21D;63946;51.986;5.930;2024-01-06T19:39:52;3.41;73.01
75357;HTU21D;63946;51.986;5.930;2024-01-06T19:42:21;3.38;72.93
75357;HTU21D;63946;51.986;5.930;2024-01-06T19:44:50;3.34;73.00
75357;HTU21D;63946;51.986;5.930;2024-01-06T19:47:19;3.32;73.00
75357;HTU21D;63946;51.986;5.930;2024-01-06T19:49:49;3.36;73.07
75357;HTU21D;63946;51.986;5.930;2024-01-06T19:52:18;3.33;72.86
75357;HTU21D;63946;51.986;5.930;2024-01-06T19:54:47;3.35;72.99
75357;HTU21D;63946;51.986;5.930;2024-01-06T19:57:16;3.36;72.78
75357;HTU21D;63946;51.986;5.930;2024-01-06T19:59:45;3.33;72.69
75357;HTU21D;63946;51.986;5.930;2024-01-06T20:02:15;3.27;72.96
75357;HTU21D;63946;51.986;5.930;2024-01-06T20:04:44;3.32;73.16
75357;HTU21D;63946;51.986;5.930;2024-01-06T20:07:13;3.34;73.09
75357;HTU21D;63946;51.986;5.930;2024-01-06T20:09:45;3.31;73.17
75357;HTU21D;63946;51.986;5.930;2024-01-06T20:12:14;3.33;73.14
75357;HTU21D;63946;51.986;5.930;2024-01-06T20:14:43;3.36;73.22
75357;HTU21D;63946;51.986;5.930;2024-01-06T20:17:12;3.29;73.02
75357;HTU21D;63946;51.986;5.930;2024-01-06T20:19:41;3.24;73.37
75357;HTU21D;63946;51.986;5.930;2024-01-06T20:22:11;3.29;73.33
75357;HTU21D;63946;51.986;5.930;2024-01-06T20:24:40;3.34;73.33
75357;HTU21D;63946;51.986;5.930;2024-01-06T20:27:09;3.38;73.36
75357;HTU21D;63946;51.986;5.930;2024-01-06T20:29:37;3.38;73.24
75357;HTU21D;63946;51.986;5.930;2024-01-06T20:32:09;3.36;73.35
75357;HTU21D;63946;51.986;5.930;2024-01-06T20:34:38;3.36;73.24
75357;HTU21D;63946;51.986;5.930;2024-01-06T20:37:10;3.35;73.51
75357;HTU21D;63946;51.986;5.930;2024-01-06T20:39:39;3.33;73.36
75357;HTU21D;63946;51.986;5.930;2024-01-06T20:42:08;3.30;73.49
75357;HTU21D;63946;51.986;5.930;2024-01-06T20:44:37;3.23;73.49
75357;HTU21D;63946;51.986;5.930;2024-01-06T20:47:05;3.17;73.45
75357;HTU21D;63946;51.986;5.930;2024-01-06T20:49:34;3.15;73.62
75357;HTU21D;63946;51.986;5.930;2024-01-06T20:52:03;3.20;73.55
75357;HTU21D;63946;51.986;5.930;2024-01-06T20:54:32;3.27;73.44
75357;HTU21D;63946;51.986;5.930;2024-01-06T20:57:02;3.24;73.57
75357;HTU21D;63946;51.986;5.930;2024-01-06T20:59:33;3.23;73.57
75357;HTU21D;63946;51.986;5.930;2024-01-06T21:02:05;3.19;73.54
75357;HTU21D;63946;51.986;5.930;2024-01-06T21:04:36;3.13;73.63
75357;HTU21D;63946;51.986;5.930;2024-01-06T21:07:05;3.16;73.68
75357;HTU21D;63946;51.986;5.930;2024-01-06T21:09:34;3.20;73.64
75357;HTU21D;63946;51.986;5.930;2024-01-06T21:12:05;3.21;73.51
75357;HTU21D;63946;51.986;5.930;2024-01-06T21:14:34;3.12;73.48
75357;HTU21D;63946;51.986;5.930;2024-01-06T21:17:06;3.05;73.73
75357;HTU21D;63946;51.986;5.930;2024-01-06T21:19:35;3.09;73.78
75357;HTU21D;63946;51.986;5.930;2024-01-06T21:22:04;3.11;73.66
75357;HTU21D;63946;51.986;5.930;2024-01-06T21:24:34;3.11;73.67
75357;HTU21D;63946;51.986;5.930;2024-01-06T21:27:03;3.12;73.72
75357;HTU21D;63946;51.986;5.930;2024-01-06T21:29:32;3.08;73.70
75357;HTU21D;63946;51.986;5.930;2024-01-06T21:32:01;3.09;73.82
75357;HTU21D;63946;51.986;5.930;2024-01-06T21:34:30;3.11;73.75
75357;HTU21D;63946;51.986;5.930;2024-01-06T21:37:01;3.12;73.67
75357;HTU21D;63946;51.986;5.930;2024-01-06T21:39:35;3.12;73.81
75357;HTU21D;63946;51.986;5.930;2024-01-06T21:42:03;3.14;73.76
75357;HTU21D;63946;51.986;5.930;2024-01-06T21:44:32;3.12;73.92
75357;HTU21D;63946;51.986;5.930;2024-01-06T21:47:01;3.16;73.77
75357;HTU21D;63946;51.986;5.930;2024-01-06T21:49:30;3.15;73.86
75357;HTU21D;63946;51.986;5.930;2024-01-06T21:51:59;3.17;73.94
75357;HTU21D;63946;51.986;5.930;2024-01-06T21:54:30;3.14;73.90
75357;HTU21D;63946;51.986;5.930;2024-01-06T21:57:01;3.15;73.74
75357;HTU21D;63946;51.986;5.930;2024-01-06T21:59:30;3.01;74.05
75357;HTU21D;63946;51.986;5.930;2024-01-06T22:01:59;3.03;74.21
75357;HTU21D;63946;51.986;5.930;2024-01-06T22:04:29;2.99;74.22
75357;HTU21D;63946;51.986;5.930;2024-01-06T22:06:58;2.94;74.39
75357;HTU21D;63946;51.986;5.930;2024-01-06T22:09:26;2.91;74.54
75357;HTU21D;63946;51.986;5.930;2024-01-06T22:11:55;2.86;74.86
75357;HTU21D;63946;51.986;5.930;2024-01-06T22:14:24;2.90;75.09
75357;HTU21D;63946;51.986;5.930;2024-01-06T22:16:53;2.98;74.95
